Time;durP1;ratioP1;P1;durP2;ratioP2;P2;SDS_P1;SDS_P2;PMS_P1;PMS_P2;Temp;Humidity;BMP_temperature;BMP_pressure;BME280_temperature;BME280_humidity;BME280_pressure;Samples;Min_cycle;Max_cycle;Signal;HPM_P1;HPM_P2
2023/04/24 00:03:34;;;;;;;2.83;2.40;;;;;;;18.84;53.29;95785.13;10474769;28;20098;-45
2023/04/24 00:08:55;;;;;;;4.10;2.75;;;;;;;18.83;53.23;95781.63;10474069;28;20045;-44
2023/04/24 00:14:14;;;;;;;2.67;2.35;;;;;;;18.84;53.13;95766.25;10473786;28;20045;-45
2023/04/24 00:19:34;;;;;;;3.30;2.53;;;;;;;18.83;53.23;95764.66;10472859;28;20056;-44
2023/04/24 00:24:54;;;;;;;2.92;2.40;;;;;;;18.83;53.16;95764.66;10471652;28;20049;-46
2023/04/24 00:30:14;;;;;;;2.72;2.30;;;;;;;18.81;53.16;95762.31;10473248;28;20040;-45
2023/04/24 00:35:33;;;;;;;2.53;2.20;;;;;;;18.81;53.09;95764.22;10473152;28;20048;-44
2023/04/24 00:40:53;;;;;;;3.13;2.38;;;;;;;18.82;53.02;95765.78;10472958;28;20041;-45
2023/04/24 00:46:14;;;;;;;3.20;2.55;;;;;;;18.81;53.00;95764.22;10472766;28;20090;-44
2023/04/24 00:51:34;;;;;;;2.85;2.30;;;;;;;18.80;53.00;95770.75;10472388;28;20488;-48
2023/04/24 00:56:54;;;;;;;3.17;2.47;;;;;;;18.80;52.91;95768.84;10472269;28;20539;-46
2023/04/24 01:02:15;;;;;;;3.22;2.47;;;;;;;18.78;52.92;95758.38;10471723;28;20041;-43
2023/04/24 01:07:34;;;;;;;2.67;2.47;;;;;;;18.78;52.88;95754.88;10471593;28;20041;-44
2023/04/24 01:12:54;;;;;;;2.38;2.00;;;;;;;18.77;52.99;95748.69;10470554;28;20044;-45
2023/04/24 01:18:14;;;;;;;2.63;2.42;;;;;;;18.77;52.92;95748.69;10457003;28;20179;-45
2023/04/24 01:23:34;;;;;;;3.13;2.30;;;;;;;18.77;52.77;95747.91;10471080;28;20045;-45
2023/04/24 01:28:54;;;;;;;2.30;2.10;;;;;;;18.76;52.81;95746.34;10458031;28;20053;-45
2023/04/24 01:34:14;;;;;;;2.78;2.40;;;;;;;18.76;52.83;95732.88;10462470;28;20044;-46
2023/04/24 01:39:33;;;;;;;2.47;2.28;;;;;;;18.75;52.71;95732.06;10455445;28;20049;-44
2023/04/24 01:44:54;;;;;;;2.92;2.58;;;;;;;18.75;52.65;95731.28;10470223;28;20045;-45
2023/04/24 01:50:13;;;;;;;2.67;2.13;;;;;;;18.76;52.74;95720.16;10456850;28;20064;-46
2023/04/24 01:55:33;;;;;;;2.20;2.00;;;;;;;18.74;52.62;95717.00;10469930;28;20451;-46
2023/04/24 02:00:52;;;;;;;2.60;2.40;;;;;;;18.74;52.67;95710.84;10468146;28;20055;-44
2023/04/24 02:06:13;;;;;;;2.20;2.00;;;;;;;18.74;52.59;95717.00;10445081;28;20045;-45
2023/04/24 02:11:32;;;;;;;2.72;2.38;;;;;;;18.74;52.44;95706.22;10469155;28;20049;-45
2023/04/24 02:16:53;;;;;;;2.30;2.03;;;;;;;18.72;52.45;95708.47;10469062;28;20049;-45
2023/04/24 02:22:12;;;;;;;2.75;2.20;;;;;;;18.73;52.53;95704.63;10469096;28;20041;-44
2023/04/24 02:27:32;;;;;;;3.05;2.03;;;;;;;18.72;52.42;95703.09;10459851;28;20049;-44
2023/04/24 02:32:51;;;;;;;2.85;2.15;;;;;;;18.72;52.43;95708.47;10468888;28;20052;-46
2023/04/24 02:38:11;;;;;;;3.42;2.30;;;;;;;18.71;52.49;95701.50;10468526;28;20041;-45
2023/04/24 02:43:30;;;;;;;2.70;2.40;;;;;;;18.71;52.31;95700.72;10457541;28;20049;-46
2023/04/24 02:48:50;;;;;;;2.15;1.95;;;;;;;18.71;52.35;95701.50;10477085;28;20037;-45
2023/04/24 02:54:12;;;;;;;2.38;2.17;;;;;;;18.69;52.20;95694.91;10453893;28;20051;-45
2023/04/24 02:59:31;;;;;;;2.30;2.10;;;;;;;18.69;52.37;95701.06;10476660;28;20044;-44
2023/04/24 03:04:51;;;;;;;2.20;2.00;;;;;;;18.68;52.35;95707.59;10447903;28;20041;-45
2023/04/24 03:10:11;;;;;;;2.58;2.38;;;;;;;18.68;52.17;95702.22;10476492;28;20041;-44
2023/04/24 03:15:30;;;;;;;2.35;2.15;;;;;;;18.67;52.27;95695.22;10461100;28;20049;-44
2023/04/24 03:20:50;;;;;;;2.47;2.22;;;;;;;18.67;52.05;95692.53;10475966;28;20554;-44
2023/04/24 03:26:10;;;;;;;2.42;1.83;;;;;;;18.67;52.07;95687.13;10447459;28;20056;-44
2023/04/24 03:31:35;;;;;;;2.33;1.95;;;;;;;18.67;52.14;95678.25;10460319;28;20052;-44
2023/04/24 03:36:55;;;;;;;2.53;1.90;;;;;;;18.67;52.20;95675.56;10460339;28;20049;-45
2023/04/24 03:42:16;;;;;;;2.25;2.05;;;;;;;18.66;52.01;95674.78;10439024;28;20041;-45
2023/04/24 03:47:44;;;;;;;2.28;2.08;;;;;;;18.65;52.09;95694.78;10459834;28;20045;-44
2023/04/24 03:53:03;;;;;;;2.72;2.20;;;;;;;18.66;52.01;95698.25;10473817;28;20045;-45
2023/04/24 03:58:29;;;;;;;2.30;2.08;;;;;;;18.64;52.04;95698.63;10459019;28;20056;-43
2023/04/24 04:03:49;;;;;;;2.53;2.10;;;;;;;18.64;51.95;95698.63;10458981;28;20041;-44
2023/04/24 04:09:13;;;;;;;2.08;1.90;;;;;;;18.63;52.05;95699.75;10451016;28;20037;-45
2023/04/24 04:14:32;;;;;;;2.20;2.00;;;;;;;18.62;52.12;95698.19;10441678;28;20045;-44
2023/04/24 04:19:52;;;;;;;2.10;1.90;;;;;;;18.63;51.95;95713.22;10440066;28;20056;-45
2023/04/24 04:25:13;;;;;;;2.55;1.88;;;;;;;18.64;51.86;95716.72;10471045;28;20429;-44
2023/04/24 04:30:33;;;;;;;2.08;1.90;;;;;;;18.64;51.86;95728.31;10458730;28;20045;-45
2023/04/24 04:35:58;;;;;;;1.80;1.70;;;;;;;18.64;51.89;95728.31;10458568;28;20053;-44
2023/04/24 04:41:20;;;;;;;2.63;1.58;;;;;;;18.63;51.92;95728.63;10452177;28;20488;-45
2023/04/24 04:46:41;;;;;;;2.28;1.67;;;;;;;18.65;51.94;95734.47;10478301;28;20045;-47
2023/04/24 04:52:17;;;;;;;1.77;1.67;;;;;;;18.65;52.03;95735.25;10437510;28;20052;-46
2023/04/24 04:57:38;;;;;;;2.20;2.00;;;;;;;18.67;52.15;95741.09;10453869;28;20044;-47
2023/04/24 05:02:58;;;;;;;2.60;1.95;;;;;;;18.69;52.24;95740.75;10456053;28;20781;-45
2023/04/24 05:08:17;;;;;;;1.98;1.73;;;;;;;18.71;52.36;95747.38;10468822;28;20048;-45
2023/04/24 05:13:37;;;;;;;3.28;2.13;;;;;;;18.74;52.35;95751.31;10456941;28;20041;-45
2023/04/24 05:19:00;;;;;;;1.80;1.60;;;;;;;18.76;52.33;95751.75;10456622;28;20045;-45
2023/04/24 05:24:25;;;;;;;2.00;1.73;;;;;;;18.77;52.13;95759.47;10454446;28;20048;-46
2023/04/24 05:30:00;;;;;;;1.50;1.40;;;;;;;18.78;52.13;95755.66;10456321;28;20063;-47
2023/04/24 05:35:20;;;;;;;2.08;1.70;;;;;;;18.83;51.92;95764.66;10471149;28;20091;-45
2023/04/24 05:40:40;;;;;;;3.45;1.90;;;;;;;18.84;51.77;95761.63;10453812;28;20045;-48
2023/04/24 05:45:59;;;;;;;3.08;1.70;;;;;;;18.87;51.58;95774.41;10468759;28;20048;-45
2023/04/24 05:51:19;;;;;;;1.50;1.40;;;;;;;18.90;51.58;95784.53;10468585;28;20048;-47
2023/04/24 05:56:40;;;;;;;1.58;1.48;;;;;;;18.93;51.36;95786.56;10468323;28;20048;-48
2023/04/24 06:02:00;;;;;;;2.75;1.77;;;;;;;18.95;51.20;95795.09;10439865;28;20071;-44
2023/04/24 06:07:20;;;;;;;3.05;1.77;;;;;;;19.00;50.99;95795.97;10452889;28;20044;-46
2023/04/24 06:12:40;;;;;;;2.00;1.80;;;;;;;19.03;50.66;95789.88;10452848;28;20041;-45
2023/04/24 06:18:05;;;;;;;3.08;1.77;;;;;;;19.05;50.60;95801.91;10452342;28;20436;-46
2023/04/24 06:23:25;;;;;;;1.92;1.67;;;;;;;19.09;50.64;95796.59;10452671;28;20041;-47
2023/04/24 06:28:45;;;;;;;1.70;1.60;;;;;;;19.12;50.44;95795.91;10454401;28;20060;-47
2023/04/24 06:34:05;;;;;;;1.83;1.73;;;;;;;19.16;50.27;95800.25;10454060;28;20073;-45
2023/04/24 06:39:25;;;;;;;4.32;2.00;;;;;;;19.18;50.10;95802.63;10466997;28;20045;-45
2023/04/24 06:44:45;;;;;;;1.70;1.60;;;;;;;19.24;49.99;95813.97;10453646;28;20056;-45
2023/04/24 06:50:05;;;;;;;1.77;1.50;;;;;;;19.26;49.92;95811.69;10466633;28;20041;-45
2023/04/24 06:55:25;;;;;;;1.60;1.50;;;;;;;19.30;49.77;95809.88;10466846;28;20056;-47
2023/04/24 07:00:44;;;;;;;2.05;1.70;;;;;;;19.33;49.57;95817.28;10466630;28;20048;-45
2023/04/24 07:06:04;;;;;;;1.83;1.48;;;;;;;19.36;49.60;95816.59;10466573;28;20413;-46
2023/04/24 07:11:24;;;;;;;1.73;1.40;;;;;;;19.39;49.52;95818.59;10466421;28;20389;-48
2023/04/24 07:16:43;;;;;;;2.25;1.73;;;;;;;19.44;49.41;95820.25;10466413;28;20720;-46
2023/04/24 07:22:03;;;;;;;1.60;1.50;;;;;;;19.47;49.31;95816.88;10466086;28;20041;-46
2023/04/24 07:27:22;;;;;;;1.83;1.50;;;;;;;19.50;49.28;95819.66;10457437;28;20064;-45
2023/04/24 07:32:42;;;;;;;4.47;1.70;;;;;;;19.54;49.27;95828.66;10473032;28;20048;-45
2023/04/24 07:38:01;;;;;;;2.13;1.63;;;;;;;19.58;49.06;95830.63;10460146;28;20075;-47
2023/04/24 07:43:21;;;;;;;2.33;1.70;;;;;;;19.60;48.96;95840.00;10473349;28;20041;-48
2023/04/24 07:48:41;;;;;;;1.83;1.50;;;;;;;19.63;48.97;95841.19;10472960;28;20041;-46
2023/04/24 07:54:00;;;;;;;1.58;1.48;;;;;;;19.66;48.95;95845.88;10472929;28;20041;-44
2023/04/24 07:59:19;;;;;;;1.60;1.50;;;;;;;19.70;48.89;95852.19;10472743;28;20048;-43
2023/04/24 08:04:39;;;;;;;4.40;1.60;;;;;;;19.71;49.06;95853.75;10472604;28;20044;-48
2023/04/24 08:10:00;;;;;;;2.75;1.40;;;;;;;19.73;49.45;95848.81;10472250;28;20041;-45
2023/04/24 08:15:19;;;;;;;5.32;1.70;;;;;;;19.77;49.62;95854.31;10472402;28;20041;-48
2023/04/24 08:20:39;;;;;;;1.70;1.60;;;;;;;19.78;49.71;95848.56;10471990;28;20048;-47
2023/04/24 08:25:59;;;;;;;5.47;1.30;;;;;;;19.82;50.05;95849.44;10467345;28;20049;-45
2023/04/24 08:31:18;;;;;;;2.28;1.50;;;;;;;19.86;50.03;95846.81;10471588;28;20044;-45
2023/04/24 08:36:38;;;;;;;1.52;1.30;;;;;;;19.87;50.11;95834.88;10471560;28;20052;-44
2023/04/24 08:42:04;;;;;;;4.10;1.73;;;;;;;19.90;49.88;95839.59;10471119;28;20040;-47
2023/04/24 08:47:26;;;;;;;2.42;1.50;;;;;;;19.93;50.08;95839.69;10471102;28;20037;-45
2023/04/24 08:52:47;;;;;;;1.50;1.15;;;;;;;19.97;50.00;95841.66;10442795;28;20187;-45
2023/04/24 08:58:07;;;;;;;4.47;1.38;;;;;;;19.99;49.87;95847.50;10470613;28;20052;-45
2023/04/24 09:03:27;;;;;;;2.88;1.33;;;;;;;20.02;49.99;95854.94;10470421;28;20037;-44
2023/04/24 09:08:48;;;;;;;3.78;1.40;;;;;;;20.04;49.92;95848.03;10469956;28;20048;-45
2023/04/24 09:14:09;;;;;;;1.88;1.35;;;;;;;20.06;49.84;95848.47;10469992;28;20091;-45
2023/04/24 09:19:29;;;;;;;4.10;1.25;;;;;;;20.09;50.03;95855.06;10456240;28;20056;-44
2023/04/24 09:24:59;;;;;;;1.88;1.48;;;;;;;20.11;49.69;95850.91;10468153;28;20060;-45
2023/04/24 09:30:23;;;;;;;1.48;1.38;;;;;;;20.14;49.61;95849.41;10454210;28;20045;-45
2023/04/24 09:35:51;;;;;;;3.50;1.23;;;;;;;20.15;49.69;95840.97;10469266;28;20048;-43
2023/04/24 09:41:13;;;;;;;1.40;1.30;;;;;;;20.18;49.84;95842.16;10468935;28;20041;-44
2023/04/24 09:46:33;;;;;;;1.40;1.30;;;;;;;20.18;49.89;95839.47;10468686;28;20047;-46
2023/04/24 09:52:07;;;;;;;6.55;1.42;;;;;;;20.20;49.92;95845.31;10453009;28;20055;-45
2023/04/24 09:57:26;;;;;;;1.35;1.20;;;;;;;20.21;49.88;95832.56;10468175;28;20045;-45
2023/04/24 10:02:49;;;;;;;3.20;1.23;;;;;;;20.24;49.91;95834.56;10468439;28;20037;-44
2023/04/24 10:08:11;;;;;;;1.38;1.27;;;;;;;20.26;49.83;95835.00;10467992;28;20041;-44
2023/04/24 10:13:32;;;;;;;1.50;1.13;;;;;;;20.26;49.87;95824.97;10468020;28;20041;-44
2023/04/24 10:18:52;;;;;;;1.40;1.30;;;;;;;20.28;49.82;95828.09;10452742;28;20067;-46
2023/04/24 10:24:13;;;;;;;1.50;1.30;;;;;;;20.29;49.90;95826.97;10467353;28;20091;-44
2023/04/24 10:29:35;;;;;;;1.40;1.08;;;;;;;20.30;49.89;95830.47;10467212;28;20045;-46
2023/04/24 10:34:56;;;;;;;1.65;1.40;;;;;;;20.30;49.80;95817.72;10451711;28;20045;-46
2023/04/24 10:40:20;;;;;;;1.60;1.15;;;;;;;20.31;49.79;95823.94;10466365;28;20048;-45
2023/04/24 10:45:39;;;;;;;1.58;1.20;;;;;;;20.32;49.73;95828.97;10451746;28;20040;-46
2023/04/24 10:50:59;;;;;;;1.20;1.10;;;;;;;20.31;49.49;95823.94;10468496;28;20041;-44
2023/04/24 10:56:19;;;;;;;1.42;1.10;;;;;;;20.33;49.41;95810.84;10453101;28;20056;-45
2023/04/24 11:01:39;;;;;;;1.15;0.98;;;;;;;20.35;49.70;95805.84;10440154;28;20057;-45
2023/04/24 11:06:58;;;;;;;8.43;1.10;;;;;;;20.34;49.69;95794.22;10475772;28;20037;-45
2023/04/24 11:12:18;;;;;;;2.35;1.30;;;;;;;20.37;49.73;95791.97;10476658;28;20041;-45
2023/04/24 11:17:40;;;;;;;2.75;1.30;;;;;;;20.37;49.75;95795.47;10476521;28;20056;-48
2023/04/24 11:23:04;;;;;;;6.68;1.13;;;;;;;20.36;49.80;95796.59;10462580;28;20551;-47
2023/04/24 11:28:24;;;;;;;2.92;1.00;;;;;;;20.37;47.70;95792.75;10464726;28;20052;-46
2023/04/24 11:33:44;;;;;;;2.20;1.10;;;;;;;20.33;45.32;95784.56;10475876;28;20037;-48
2023/04/24 11:39:03;;;;;;;1.00;0.60;;;;;;;20.29;44.19;95783.69;10475761;28;20059;-48
2023/04/24 11:44:24;;;;;;;2.70;0.80;;;;;;;20.28;43.82;95790.22;10469275;28;20045;-50
2023/04/24 11:49:44;;;;;;;1.10;0.80;;;;;;;20.27;43.52;95793.31;10475284;28;20045;-49
2023/04/24 11:55:06;;;;;;;2.83;0.70;;;;;;;20.25;43.18;95782.06;10475121;28;20477;-48
2023/04/24 12:00:31;;;;;;;3.15;0.95;;;;;;;20.22;42.57;95780.84;10459923;28;20051;-44
2023/04/24 12:05:51;;;;;;;3.25;0.57;;;;;;;20.22;44.59;95785.47;10461395;28;20060;-45
2023/04/24 12:11:11;;;;;;;0.88;0.70;;;;;;;20.20;44.81;95783.09;10474534;28;20136;-49
2023/04/24 12:16:32;;;;;;;4.05;1.00;;;;;;;20.21;45.01;95797.41;10473821;28;20507;-52
2023/04/24 12:22:06;;;;;;;0.95;0.80;;;;;;;20.20;45.29;95804.75;10430663;28;20088;-47
2023/04/24 12:27:26;;;;;;;9.05;1.02;;;;;;;20.20;45.66;95831.78;10423860;28;20057;-47
2023/04/24 12:32:48;;;;;;;6.45;0.85;;;;;;;20.22;45.92;95848.44;10432356;28;20464;-45
2023/04/24 12:38:15;;;;;;;2.47;0.50;;;;;;;20.12;44.50;95838.16;10432191;28;20049;-47
2023/04/24 12:43:35;;;;;;;3.97;0.68;;;;;;;20.08;45.62;95838.06;10431989;28;20049;-44
2023/04/24 12:48:55;;;;;;;1.60;0.70;;;;;;;20.10;46.37;95830.41;10431644;28;20048;-45
2023/04/24 12:54:14;;;;;;;6.75;0.68;;;;;;;20.11;46.69;95823.88;10431371;28;20041;-47
2023/04/24 12:59:34;;;;;;;1.70;0.68;;;;;;;20.11;46.92;95818.47;10431361;28;20045;-48
2023/04/24 13:04:54;;;;;;;1.70;0.73;;;;;;;20.13;46.89;95820.78;10430939;28;20110;-47
2023/04/24 13:10:13;;;;;;;2.15;0.70;;;;;;;20.14;47.11;95816.97;10430818;28;20046;-48
2023/04/24 13:15:33;;;;;;;9.02;0.80;;;;;;;20.15;47.35;95805.03;10430390;28;20045;-48
2023/04/24 13:20:53;;;;;;;2.90;0.73;;;;;;;20.14;47.46;95808.84;10430233;28;20068;-49
2023/04/24 13:26:12;;;;;;;2.50;0.73;;;;;;;20.15;47.65;95802.31;10423936;28;20049;-48
2023/04/24 13:31:31;;;;;;;2.42;0.70;;;;;;;20.14;47.77;95800.75;10430069;28;20379;-49
2023/04/24 13:36:53;;;;;;;1.55;0.60;;;;;;;20.14;47.91;95795.34;10429700;28;20042;-48
2023/04/24 13:42:12;;;;;;;0.50;0.50;;;;;;;20.14;48.02;95789.94;10429555;28;20041;-49
2023/04/24 13:47:32;;;;;;;1.42;0.70;;;;;;;20.14;48.18;95781.81;10429339;28;20037;-50
2023/04/24 13:52:51;;;;;;;1.58;0.60;;;;;;;20.13;48.41;95782.94;10416245;28;20100;-50
2023/04/24 13:58:10;;;;;;;1.95;0.60;;;;;;;20.14;48.43;95779.09;10429194;28;20052;-45
2023/04/24 14:03:30;;;;;;;0.70;0.50;;;;;;;20.14;48.37;95779.88;10428660;28;20042;-49
2023/04/24 14:08:50;;;;;;;3.92;0.50;;;;;;;20.13;48.47;95780.22;10428677;28;20121;-49
2023/04/24 14:14:10;;;;;;;0.82;0.50;;;;;;;20.12;48.37;95786.78;10428525;28;20112;-47
2023/04/24 14:19:29;;;;;;;1.25;0.57;;;;;;;20.11;48.20;95790.63;10413436;28;20050;-49
2023/04/24 14:24:49;;;;;;;2.13;0.63;;;;;;;20.09;48.34;95788.28;10426857;28;20417;-47
2023/04/24 14:30:08;;;;;;;1.30;0.70;;;;;;;20.12;48.32;95792.19;10414802;28;20068;-46
2023/04/24 14:35:31;;;;;;;0.70;0.60;;;;;;;20.10;48.35;95791.78;10427911;28;20053;-47
2023/04/24 14:40:50;;;;;;;0.47;0.47;;;;;;;20.10;48.41;95795.25;10427657;28;20068;-49
2023/04/24 14:46:10;;;;;;;0.90;0.50;;;;;;;20.12;48.49;95797.59;10427709;28;20041;-47
2023/04/24 14:51:30;;;;;;;0.68;0.40;;;;;;;20.10;48.49;95791.78;10427722;28;20046;-47
2023/04/24 14:56:50;;;;;;;0.63;0.50;;;;;;;20.10;48.53;95794.47;10427591;28;20111;-48
2023/04/24 15:02:09;;;;;;;1.08;0.50;;;;;;;20.10;48.63;95786.38;10427570;28;20473;-46
2023/04/24 15:07:29;;;;;;;1.67;0.50;;;;;;;20.09;48.54;95792.88;10427391;28;20046;-47
2023/04/24 15:12:49;;;;;;;1.48;0.65;;;;;;;20.09;48.41;95792.88;10427393;28;20156;-50
2023/04/24 15:18:11;;;;;;;2.35;0.60;;;;;;;20.10;48.29;95794.47;10427184;28;20049;-47
2023/04/24 15:23:31;;;;;;;2.10;0.50;;;;;;;20.08;48.40;95792.13;10427094;28;20045;-48
2023/04/24 15:28:51;;;;;;;3.55;0.65;;;;;;;20.08;48.41;95796.75;10414427;28;20053;-48
2023/04/24 15:34:11;;;;;;;7.10;0.77;;;;;;;20.08;48.46;95797.53;10427009;28;20042;-50
2023/04/24 15:39:30;;;;;;;0.73;0.55;;;;;;;20.06;48.48;95801.72;10426731;28;20049;-48
2023/04/24 15:44:50;;;;;;;3.05;0.80;;;;;;;20.05;48.35;95808.25;10426663;28;20477;-50
2023/04/24 15:50:10;;;;;;;5.43;0.88;;;;;;;20.02;42.90;95801.63;10428451;28;20045;-48
2023/04/24 15:55:30;;;;;;;1.25;0.70;;;;;;;19.98;40.70;95813.50;10433897;28;20053;-48
2023/04/24 16:00:49;;;;;;;4.68;0.80;;;;;;;19.94;38.87;95819.59;10433585;28;20103;-49
2023/04/24 16:06:09;;;;;;;0.77;0.75;;;;;;;19.88;37.27;95822.94;10433452;28;20042;-48
2023/04/24 16:11:28;;;;;;;1.70;0.75;;;;;;;19.85;40.12;95813.59;10433242;28;20050;-46
2023/04/24 16:16:49;;;;;;;1.40;0.90;;;;;;;19.86;41.32;95825.19;10418286;28;20050;-50
2023/04/24 16:22:09;;;;;;;1.05;0.80;;;;;;;19.84;41.02;95825.53;10516219;28;20045;-51
2023/04/24 16:27:29;;;;;;;5.47;0.80;;;;;;;19.85;42.92;95826.31;10506341;28;20060;-49
2023/04/24 16:32:49;;;;;;;2.53;0.90;;;;;;;19.84;43.21;95825.53;10515251;28;20044;-49
2023/04/24 16:38:08;;;;;;;2.05;0.80;;;;;;;19.85;43.09;95829.03;10515047;28;20041;-50
2023/04/24 16:43:28;;;;;;;1.40;0.77;;;;;;;19.87;43.70;95826.75;10514744;28;20044;-45
2023/04/24 16:48:47;;;;;;;1.00;0.57;;;;;;;19.87;44.17;95832.94;10514462;28;20041;-52
2023/04/24 16:54:06;;;;;;;1.65;0.70;;;;;;;19.86;44.65;95855.72;10514395;28;20485;-50
2023/04/24 16:59:27;;;;;;;1.05;0.73;;;;;;;19.86;44.86;95855.72;10514121;28;20040;-48
2023/04/24 17:04:47;;;;;;;1.35;0.90;;;;;;;19.86;45.12;95847.59;10513710;28;20036;-49
2023/04/24 17:10:08;;;;;;;0.93;0.73;;;;;;;19.86;45.18;95854.94;10500266;28;20053;-48
2023/04/24 17:15:27;;;;;;;1.15;0.75;;;;;;;19.85;45.30;95861.47;10513527;28;20048;-49
2023/04/24 17:20:47;;;;;;;0.70;0.70;;;;;;;19.84;45.44;95862.59;10513391;28;20048;-47
2023/04/24 17:26:06;;;;;;;1.33;0.90;;;;;;;19.84;45.42;95870.72;10507894;28;20052;-48
2023/04/24 17:31:26;;;;;;;0.68;0.68;;;;;;;19.83;45.59;95878.00;10512993;28;20049;-47
2023/04/24 17:36:45;;;;;;;2.92;0.80;;;;;;;19.82;45.61;95879.16;10512845;28;20056;-45
2023/04/24 17:42:04;;;;;;;1.55;0.60;;;;;;;19.82;45.57;95878.38;10512521;28;20097;-45
2023/04/24 17:47:26;;;;;;;1.90;0.80;;;;;;;19.81;45.87;95891.09;10512086;28;20040;-47
2023/04/24 17:52:45;;;;;;;0.65;0.55;;;;;;;19.81;45.78;95901.91;10511940;28;20045;-46
2023/04/24 17:58:05;;;;;;;1.67;0.80;;;;;;;19.79;46.12;95904.16;10511729;28;20048;-45
2023/04/24 18:03:25;;;;;;;1.00;0.60;;;;;;;19.79;46.07;95903.38;10511537;28;20036;-48
2023/04/24 18:08:45;;;;;;;2.15;0.80;;;;;;;19.77;46.31;95911.84;10511412;28;20405;-49
2023/04/24 18:14:04;;;;;;;1.13;0.73;;;;;;;19.78;46.46;95920.72;10510770;28;20047;-49
2023/04/24 18:19:24;;;;;;;1.77;0.68;;;;;;;19.77;46.46;95930.75;10511042;28;20060;-46
2023/04/24 18:24:43;;;;;;;1.13;0.80;;;;;;;19.77;46.56;95935.38;10497184;28;20052;-46
2023/04/24 18:30:04;;;;;;;1.55;0.77;;;;;;;19.76;46.71;95950.81;10510640;28;20040;-48
2023/04/24 18:35:24;;;;;;;1.38;0.70;;;;;;;19.76;46.82;95942.72;10510746;28;20412;-49
2023/04/24 18:40:43;;;;;;;3.38;0.80;;;;;;;19.77;46.98;95959.72;10510555;28;20055;-50
2023/04/24 18:46:03;;;;;;;0.70;0.70;;;;;;;19.75;47.07;95957.34;10510379;28;20048;-50
2023/04/24 18:51:23;;;;;;;0.95;0.80;;;;;;;19.74;47.05;95970.06;10510297;28;20049;-46
2023/04/24 18:56:42;;;;;;;1.23;0.90;;;;;;;19.73;47.13;95976.59;10496657;28;20558;-48
2023/04/24 19:02:02;;;;;;;0.73;0.73;;;;;;;19.73;47.15;95981.22;10510058;28;20045;-49
2023/04/24 19:07:21;;;;;;;0.70;0.70;;;;;;;19.74;47.51;95993.63;10494832;28;20040;-49
2023/04/24 19:12:41;;;;;;;1.38;0.77;;;;;;;19.72;47.50;95991.25;10509947;28;20489;-47
2023/04/24 19:18:01;;;;;;;2.95;0.80;;;;;;;19.73;47.59;96010.94;10509849;28;20408;-48
2023/04/24 19:23:20;;;;;;;0.90;0.70;;;;;;;19.71;47.64;96010.47;10509730;28;20098;-48
2023/04/24 19:28:40;;;;;;;1.15;0.80;;;;;;;19.70;47.67;96014.31;10504698;28;20044;-47
2023/04/24 19:34:00;;;;;;;0.98;0.60;;;;;;;19.69;47.71;96018.94;10517420;28;20044;-48
2023/04/24 19:39:20;;;;;;;1.35;0.70;;;;;;;19.69;47.83;96027.03;10517206;28;20055;-46
2023/04/24 19:44:39;;;;;;;0.70;0.68;;;;;;;19.70;47.83;96025.13;10516985;28;20044;-48
2023/04/24 19:49:59;;;;;;;0.73;0.63;;;;;;;19.67;47.87;96020.41;10516657;28;20045;-46
2023/04/24 19:55:19;;;;;;;1.10;0.77;;;;;;;19.68;47.91;96027.38;10502809;28;20036;-47
2023/04/24 20:00:40;;;;;;;1.33;0.80;;;;;;;19.67;47.84;96040.09;10516335;28;20048;-47
2023/04/24 20:05:59;;;;;;;1.48;0.70;;;;;;;19.67;47.86;96032.00;10502869;28;20118;-46
2023/04/24 20:11:19;;;;;;;1.58;0.70;;;;;;;19.65;47.92;96033.47;10515924;28;20094;-48
2023/04/24 20:16:39;;;;;;;1.35;0.60;;;;;;;19.64;47.87;96024.59;10515729;28;20044;-47
2023/04/24 20:21:59;;;;;;;1.13;0.70;;;;;;;19.65;47.79;96038.88;10516020;28;20400;-47
2023/04/24 20:27:19;;;;;;;1.15;0.80;;;;;;;19.62;47.02;96039.56;10506867;28;20501;-49
2023/04/24 20:32:39;;;;;;;2.40;0.80;;;;;;;19.60;47.39;96036.41;10515166;28;20048;-49
2023/04/24 20:38:01;;;;;;;0.82;0.80;;;;;;;19.58;47.24;96038.66;10514546;28;20051;-49
2023/04/24 20:43:22;;;;;;;2.00;0.80;;;;;;;19.59;47.46;96051.06;10514598;28;20060;-50
2023/04/24 20:48:41;;;;;;;1.05;0.73;;;;;;;19.58;47.59;96054.88;10514465;28;20472;-49
2023/04/24 20:54:01;;;;;;;2.35;1.00;;;;;;;19.58;47.54;96049.47;10514207;28;20041;-46
2023/04/24 20:59:21;;;;;;;0.80;0.68;;;;;;;19.56;47.65;96047.91;10514106;28;20055;-48
2023/04/24 21:04:40;;;;;;;0.60;0.55;;;;;;;19.56;47.63;96052.50;10513724;28;20055;-48
2023/04/24 21:09:59;;;;;;;1.13;0.70;;;;;;;19.55;47.74;96046.34;10513446;28;20089;-47
2023/04/24 21:15:18;;;;;;;0.70;0.70;;;;;;;19.53;47.64;96043.19;10498307;28;20044;-48
2023/04/24 21:20:38;;;;;;;1.08;0.75;;;;;;;19.53;47.63;96047.81;10513217;28;20059;-47
2023/04/24 21:25:57;;;;;;;1.15;0.70;;;;;;;19.53;47.81;96050.50;10508261;28;20053;-46
2023/04/24 21:31:17;;;;;;;0.63;0.63;;;;;;;19.52;47.73;96041.63;10512837;28;20424;-49
2023/04/24 21:36:36;;;;;;;0.70;0.68;;;;;;;19.50;47.63;96043.88;10512535;28;20385;-48
2023/04/24 21:41:57;;;;;;;1.77;0.90;;;;;;;19.51;46.72;96050.84;10512387;28;20385;-48
2023/04/24 21:47:16;;;;;;;0.80;0.70;;;;;;;19.49;47.66;96047.69;10511640;28;20051;-51
2023/04/24 21:52:35;;;;;;;0.77;0.75;;;;;;;19.47;47.75;96049.97;10512265;28;20047;-46
2023/04/24 21:57:56;;;;;;;1.33;0.80;;;;;;;19.49;47.78;96052.31;10512064;28;20044;-46
2023/04/24 22:03:15;;;;;;;0.50;0.50;;;;;;;19.48;47.77;96051.53;10512017;28;20036;-48
2023/04/24 22:08:35;;;;;;;1.05;0.85;;;;;;;19.47;47.86;96054.59;10511719;28;20037;-48
2023/04/24 22:13:54;;;;;;;1.30;0.80;;;;;;;19.47;47.83;96049.19;10498188;28;20056;-48
2023/04/24 22:19:14;;;;;;;0.63;0.50;;;;;;;19.45;47.95;96060.31;10511404;28;20408;-48
2023/04/24 22:24:34;;;;;;;1.52;0.70;;;;;;;19.45;48.02;96052.22;10512257;28;20040;-48
2023/04/24 22:29:55;;;;;;;1.08;0.70;;;;;;;19.44;48.11;96050.63;10553084;28;20385;-47
2023/04/24 22:35:15;;;;;;;0.60;0.60;;;;;;;19.43;48.04;96048.28;10553046;28;20044;-48
2023/04/24 22:40:34;;;;;;;2.90;0.90;;;;;;;19.43;48.17;96057.16;10552819;28;20093;-48
2023/04/24 22:45:55;;;;;;;2.45;1.02;;;;;;;19.42;48.19;96055.59;10552744;28;20044;-45
2023/04/24 22:51:16;;;;;;;1.45;0.80;;;;;;;19.41;48.24;96062.13;10552663;28;20419;-49
2023/04/24 22:56:36;;;;;;;1.10;0.80;;;;;;;19.40;48.20;96065.94;10552555;28;20048;-47
2023/04/24 23:01:58;;;;;;;1.70;0.80;;;;;;;19.40;48.19;96067.88;10559049;28;20377;-48
2023/04/24 23:07:17;;;;;;;1.83;0.93;;;;;;;19.38;48.15;96073.59;10560778;28;20036;-50
2023/04/24 23:12:37;;;;;;;1.58;0.90;;;;;;;19.36;48.25;96071.22;10560696;28;20044;-47
2023/04/24 23:17:56;;;;;;;1.65;0.93;;;;;;;19.37;48.18;96066.63;10560445;28;20048;-50
2023/04/24 23:23:16;;;;;;;1.08;0.80;;;;;;;19.36;48.22;96070.47;10560214;28;20040;-48
2023/04/24 23:28:36;;;;;;;1.33;0.80;;;;;;;19.35;48.25;96063.50;10547941;28;20407;-48
2023/04/24 23:33:55;;;;;;;1.13;0.73;;;;;;;19.35;48.19;96066.19;10559800;28;20506;-50
2023/04/24 23:39:15;;;;;;;0.93;0.75;;;;;;;19.34;48.18;96056.50;10545811;28;20051;-47
2023/04/24 23:44:35;;;;;;;0.93;0.63;;;;;;;19.32;48.33;96054.13;10559458;28;20044;-48
2023/04/24 23:49:55;;;;;;;1.13;0.60;;;;;;;19.32;48.18;96066.88;10559144;28;20043;-49
2023/04/24 23:55:14;;;;;;;0.60;0.60;;;;;;;19.31;48.28;96062.59;10559003;28;20047;-46
